Observations for NEWCASTLE, United Kingdom (EGNT)

EGNT 112220Z 17007KT 130V210 2500 BR OVC003 05/05 Q1021 
EGNT 112150Z 18007KT 150V220 2200 BR OVC003 05/04 Q1021 
EGNT 112120Z 18005KT 130V220 2500 BR FEW002 OVC003 05/04 Q1021  
EGNT 112050Z 17006KT 130V250 2800 BR FEW002 BKN003 05/04 Q1021  
EGNT 112020Z 15005KT 100V190 2800 BR FEW002 BKN003 05/04 Q1021  
EGNT 111950Z 17005KT 130V200 3500 BR BKN003 04/04 Q1021 
EGNT 111920Z 17004KT 120V210 4000 BR BKN003 04/04 Q1021 
EGNT 111850Z 17006KT 140V210 6000 SCT003 04/04 Q1021
EGNT 111820Z 18005KT 130V210 6000 SCT003 04/04 Q1021
EGNT 111750Z 16005KT 120V210 7000 FEW005 SCT025 04/03 Q1021 
EGNT 111720Z 14005KT 090V170 7000 SCT027 05/03 Q1021
EGNT 111650Z 14004KT 110V190 7000 BKN030 06/04 Q1021
EGNT 111620Z 14004KT 110V180 7000 BKN030 06/04 Q1021
EGNT 111550Z 13004KT 100V170 7000 BKN030 06/04 Q1021
EGNT 111450Z VRB03KT 9000 BKN035 06/04 Q1021
EGNT 111420Z 13004KT 9000 BKN034 06/04 Q1021
EGNT 111320Z 16006KT 130V200 5000 BR FEW004 BKN032 06/04 Q1022  
EGNT 111250Z 14004KT 090V190 5000 BR FEW004 BKN035 06/04 Q1022  
EGNT 111220Z 15005KT 090V190 5000 BR FEW004 BKN035 05/04 Q1022  
EGNT 111150Z 14005KT 6000 FEW004 SCT035 05/04 Q1023 
EGNT 111120Z 14005KT 100V180 6000 FEW020 05/03 Q1023
EGNT 111050Z VRB03KT 7000 FEW020 05/04 Q1023
EGNT 111020Z VRB03KT 7000 FEW040 05/04 Q1023
EGNT 110950Z VRB03KT 7000 FEW040 04/03 Q1023
EGNT 110920Z VRB03KT 8000 FEW040 03/02 Q1023
EGNT 110850Z 12004KT 9999 FEW040 02/01 Q1023
EGNT 110820Z VRB02KT 9999 SCT030 02/02 Q1023
EGNT 110750Z 13005KT 100V170 9999 BKN030 03/02 Q1023
EGNT 110720Z 14003KT 9999 BKN035 02/02 Q1023
EGNT 110650Z 14004KT 120V190 9999 BKN035 02/02 Q1023
EGNT 110620Z VRB03KT 9999 BKN035 02/02 Q1024
EGNT 110550Z 13003KT 9999 SCT040 01/01 Q1024
EGNT 110520Z 11001KT 9999 SCT040 M00/M00 Q1024  
EGNT 110450Z 09001KT 9999 SCT040 M00/M00 Q1024  
EGNT 110420Z 00000KT 9999 SCT040 M00/M00 Q1024  
EGNT 110350Z 00000KT 9999 SCT040 M01/M01 Q1024  
EGNT 110320Z 00000KT 9999 SCT040 M01/M01 Q1025  
EGNT 110250Z 00000KT CAVOK M01/M01 Q1025
EGNT 110150Z 00000KT CAVOK M02/M02 Q1024
EGNT 110120Z VRB01KT CAVOK M01/M01 Q1025
EGNT 110050Z 25001KT CAVOK M01/M01 Q1025
EGNT 110020Z 07001KT 9999 FEW023 M02/M02 Q1025  
EGNT 102350Z 00000KT 9999 FEW023 M02/M02 Q1026  
EGNT 102320Z 23002KT CAVOK M01/M01 Q1026
EGNT 102250Z 00000KT CAVOK M01/M01 Q1026
EGNT 102220Z 00000KT CAVOK M00/M00 Q1026
EGNT 102150Z 00000KT CAVOK 00/M00 Q1026